McKees Rocks, Pennsylvania
Current Conditions -  °F | °C
As of 3:51 AM on Thursday 23 Oct 2014 (Local Time) from KPIT Reporting Station
Scattered Clouds Scattered Clouds  
Wind Chill: 38°   Ceiling: Unl
Heat Index: 43°   Visibility: 10mi
Dew Point: 40°   Wind: 8mph
Humidity: 89%   Direction: 310°NW
Pressure: 30.13"   Gusts: NA
Location:  40.4648°N, 80.1115°W
Report Text: KPIT 230751Z 31007KT 10SM SCT043 06/04 A3013 RMK AO2 SLP214 T00610044
Loading
Personal Weather Stations






























Interactive Weather Map
Tropical Storm Tracking
New forecast layout! Learn more

10-Day Weather Forecast

Advertisements
Track Severe Weather on mobile